Time;durP1;ratioP1;P1;durP2;ratioP2;P2;SDS_P1;SDS_P2;PMS_P1;PMS_P2;Temp;Humidity;BMP_temperature;BMP_pressure;BME280_temperature;BME280_humidity;BME280_pressure;Samples;Min_cycle;Max_cycle;Signal;HPM_P1;HPM_P2
2021/01/31 00:01:21;;;;;;;13.77;7.95;;;1.30;99.90;;;;;;4151151;28;20060;-83
2021/01/31 00:03:24;;;;;;;16.10;9.40;;;1.30;99.90;;;;;;4139391;28;20038;-83
2021/01/31 00:05:25;;;;;;;13.80;8.95;;;1.20;99.90;;;;;;4161086;28;20481;-83
2021/01/31 00:07:26;;;;;;;14.32;8.65;;;1.10;99.90;;;;;;4161762;28;20046;-83
2021/01/31 00:09:27;;;;;;;15.93;8.85;;;1.20;99.90;;;;;;4146124;28;20113;-83
2021/01/31 00:11:27;;;;;;;15.50;8.25;;;1.20;99.90;;;;;;4160645;28;20076;-83
2021/01/31 00:13:29;;;;;;;16.70;9.18;;;1.10;99.90;;;;;;4143024;28;20037;-83
2021/01/31 00:15:40;;;;;;;14.85;8.68;;;1.10;99.90;;;;;;4160879;28;20057;-83
2021/01/31 00:17:44;;;;;;;14.60;8.88;;;1.10;99.90;;;;;;4160609;28;20037;-83
2021/01/31 00:19:46;;;;;;;14.30;8.07;;;1.20;99.90;;;;;;4145451;28;20038;-83
2021/01/31 00:21:46;;;;;;;15.98;8.45;;;1.20;99.90;;;;;;4161312;28;20109;-83
2021/01/31 00:23:47;;;;;;;16.10;8.57;;;1.10;99.90;;;;;;4162438;28;20026;-83
2021/01/31 00:25:48;;;;;;;14.25;9.05;;;1.10;99.90;;;;;;4160683;28;20052;-83
2021/01/31 00:27:50;;;;;;;14.55;9.05;;;1.10;99.90;;;;;;4155620;28;20025;-83
2021/01/31 00:29:52;;;;;;;15.63;9.60;;;1.10;99.90;;;;;;4144327;28;20266;-83
2021/01/31 00:31:53;;;;;;;12.15;7.80;;;1.00;99.90;;;;;;4175607;28;20064;-83
2021/01/31 00:33:53;;;;;;;13.30;8.73;;;1.10;99.90;;;;;;4139923;28;20482;-83
2021/01/31 00:35:56;;;;;;;19.00;9.60;;;1.00;99.90;;;;;;4164928;28;20036;-83
2021/01/31 00:37:56;;;;;;;15.57;8.80;;;1.00;99.90;;;;;;4159913;28;20021;-83
2021/01/31 00:39:57;;;;;;;18.05;9.10;;;1.00;99.90;;;;;;4159694;28;20034;-83
2021/01/31 00:41:58;;;;;;;13.98;8.90;;;1.00;99.90;;;;;;4160246;28;20026;-83
2021/01/31 00:43:58;;;;;;;16.58;9.90;;;0.90;99.90;;;;;;4147379;28;20112;-83
2021/01/31 00:45:59;;;;;;;14.02;8.05;;;0.90;99.90;;;;;;4156258;28;20021;-83
2021/01/31 00:47:59;;;;;;;14.50;9.13;;;1.00;99.90;;;;;;4159585;28;20179;-83
2021/01/31 00:50:00;;;;;;;15.32;9.10;;;1.00;99.90;;;;;;4153623;28;20084;-83
2021/01/31 00:52:01;;;;;;;15.20;8.85;;;1.00;99.90;;;;;;4161712;28;20030;-83
2021/01/31 00:54:02;;;;;;;17.13;9.45;;;1.00;99.90;;;;;;4146151;28;20051;-83
2021/01/31 00:56:03;;;;;;;15.35;8.90;;;1.00;99.90;;;;;;4160347;28;20112;-82
2021/01/31 00:58:04;;;;;;;13.48;8.82;;;0.90;99.90;;;;;;4159226;28;20510;-83
2021/01/31 01:00:21;;;;;;;14.73;9.13;;;0.90;99.90;;;;;;4143746;28;20030;-82
2021/01/31 01:02:21;;;;;;;14.43;8.98;;;0.90;99.90;;;;;;4142552;28;20026;-83
2021/01/31 01:04:23;;;;;;;18.13;9.65;;;0.90;99.90;;;;;;4144340;28;20022;-83
2021/01/31 01:06:24;;;;;;;18.25;8.40;;;0.90;99.90;;;;;;4162365;28;20038;-83
2021/01/31 01:08:25;;;;;;;14.90;8.40;;;0.90;99.90;;;;;;4149709;28;20034;-83
2021/01/31 01:10:29;;;;;;;18.35;9.95;;;0.90;99.90;;;;;;4156035;28;20417;-83
2021/01/31 01:12:30;;;;;;;14.77;9.20;;;0.90;99.90;;;;;;4160075;28;20104;-83
2021/01/31 01:14:32;;;;;;;14.95;8.55;;;1.00;99.90;;;;;;4144224;28;20421;-83
2021/01/31 01:16:33;;;;;;;15.75;8.90;;;1.00;99.90;;;;;;4161026;28;20038;-83
2021/01/31 01:18:35;;;;;;;15.57;8.55;;;1.10;99.90;;;;;;4162107;28;20061;-83
2021/01/31 01:20:36;;;;;;;13.35;8.02;;;1.10;99.90;;;;;;4142816;28;20061;-83
2021/01/31 01:22:37;;;;;;;13.70;8.20;;;1.10;99.90;;;;;;4161604;28;20038;-83
2021/01/31 01:24:38;;;;;;;16.08;9.05;;;1.10;99.90;;;;;;4136722;28;20046;-83
2021/01/31 01:26:38;;;;;;;14.52;7.85;;;1.10;99.90;;;;;;4145043;28;20518;-83
2021/01/31 01:28:39;;;;;;;12.15;7.47;;;1.10;99.90;;;;;;4144308;28;20157;-83
2021/01/31 01:30:39;;;;;;;16.30;8.88;;;1.20;99.90;;;;;;4161838;28;20030;-83
2021/01/31 01:32:40;;;;;;;14.93;8.35;;;1.20;99.90;;;;;;4151724;28;20041;-83
2021/01/31 01:34:44;;;;;;;13.77;7.72;;;1.20;99.90;;;;;;4153787;28;20536;-83
2021/01/31 01:36:45;;;;;;;16.60;9.10;;;1.20;99.90;;;;;;4137495;28;20029;-83
2021/01/31 01:38:46;;;;;;;17.25;9.25;;;1.10;99.90;;;;;;4151917;28;20358;-83
2021/01/31 01:40:46;;;;;;;14.93;8.63;;;1.10;99.90;;;;;;4168197;28;20034;-83
2021/01/31 01:42:47;;;;;;;14.00;7.82;;;1.10;99.90;;;;;;4159564;28;20029;-83
2021/01/31 01:44:48;;;;;;;12.80;8.25;;;1.20;99.90;;;;;;4146409;28;20045;-83
2021/01/31 01:46:53;;;;;;;12.80;8.35;;;1.20;99.90;;;;;;4144463;28;20053;-83
2021/01/31 01:49:04;;;;;;;15.20;8.80;;;1.10;99.90;;;;;;4159493;28;20033;-83
2021/01/31 01:51:06;;;;;;;22.73;8.37;;;1.00;99.90;;;;;;4171461;28;20060;-83
2021/01/31 01:53:08;;;;;;;13.45;7.95;;;1.10;99.90;;;;;;4189012;28;20118;-83
2021/01/31 01:55:12;;;;;;;17.55;8.48;;;1.10;99.90;;;;;;4140013;28;20544;-83
2021/01/31 01:57:17;;;;;;;15.27;8.07;;;1.00;99.90;;;;;;4159899;28;20049;-83
2021/01/31 01:59:18;;;;;;;14.50;8.65;;;1.10;99.90;;;;;;4129254;28;20579;-83
2021/01/31 02:01:21;;;;;;;12.98;7.38;;;1.10;99.90;;;;;;4151468;28;20037;-83
2021/01/31 02:03:36;;;;;;;12.57;7.85;;;1.20;99.90;;;;;;4143189;28;20532;-83
2021/01/31 02:05:38;;;;;;;15.60;7.78;;;1.20;99.90;;;;;;4167656;28;20160;-83
2021/01/31 02:07:39;;;;;;;14.50;7.97;;;1.20;99.90;;;;;;4151770;28;20472;-83
2021/01/31 02:09:45;;;;;;;12.18;7.90;;;1.30;99.90;;;;;;4165504;28;20232;-82
2021/01/31 02:11:45;;;;;;;12.98;7.70;;;1.30;99.90;;;;;;4159524;28;20029;-82
2021/01/31 02:14:01;;;;;;;13.05;7.72;;;1.30;99.90;;;;;;4143803;28;20621;-82
2021/01/31 02:16:06;;;;;;;12.98;7.78;;;1.30;99.90;;;;;;4155535;28;20029;-82
2021/01/31 02:18:28;;;;;;;14.13;8.18;;;1.40;99.90;;;;;;4159625;28;20456;-83
2021/01/31 02:21:06;;;;;;;10.10;7.05;;;1.40;99.90;;;;;;4150137;28;20022;-83
2021/01/31 02:23:32;;;;;;;14.55;7.65;;;1.40;99.90;;;;;;4139109;28;20038;-83
2021/01/31 02:25:36;;;;;;;13.60;7.90;;;1.30;99.90;;;;;;4158793;28;20125;-83
2021/01/31 02:28:21;;;;;;;14.55;7.72;;;1.30;99.90;;;;;;4168011;28;20044;-83
2021/01/31 02:30:43;;;;;;;14.57;8.93;;;1.20;99.90;;;;;;4143697;28;20053;-83
2021/01/31 02:33:19;;;;;;;14.75;7.95;;;1.10;99.90;;;;;;4167900;28;20108;-83
2021/01/31 02:35:25;;;;;;;13.40;8.23;;;1.10;99.90;;;;;;4143514;28;20490;-83
2021/01/31 02:37:58;;;;;;;14.07;7.75;;;1.10;99.90;;;;;;4159832;28;20059;-83
2021/01/31 02:40:12;;;;;;;11.77;8.07;;;1.00;99.90;;;;;;4143000;28;20037;-83
2021/01/31 02:42:34;;;;;;;16.13;8.48;;;0.90;99.90;;;;;;4168066;28;20449;-83
2021/01/31 02:44:41;;;;;;;15.98;8.20;;;0.90;99.90;;;;;;4140795;28;20533;-83
2021/01/31 02:46:54;;;;;;;13.80;8.60;;;0.80;99.90;;;;;;4166946;28;20044;-83
2021/01/31 02:49:04;;;;;;;;;;;0.80;99.90;;;;;;4160817;28;20052;-83
2021/01/31 02:51:11;;;;;;;12.82;7.50;;;0.80;99.90;;;;;;4154819;28;19919;-83
2021/01/31 02:53:21;;;;;;;14.38;7.75;;;0.80;99.90;;;;;;4159679;28;20390;-82
2021/01/31 02:55:38;;;;;;;15.35;8.35;;;0.80;99.90;;;;;;4142993;28;20375;-82
2021/01/31 02:57:42;;;;;;;13.65;7.93;;;0.70;99.90;;;;;;4167558;28;20067;-83
2021/01/31 03:00:00;;;;;;;13.60;8.57;;;0.60;99.90;;;;;;4157995;28;20026;-83
2021/01/31 03:02:05;;;;;;;13.57;7.88;;;0.70;99.90;;;;;;4166866;28;20025;-83
2021/01/31 03:04:11;;;;;;;13.45;8.23;;;0.60;99.90;;;;;;4160685;28;20029;-83
2021/01/31 03:06:18;;;;;;;12.48;7.97;;;0.60;99.90;;;;;;4147332;28;20100;-83
2021/01/31 03:08:26;;;;;;;12.23;7.60;;;0.50;99.90;;;;;;4141294;28;20045;-82
2021/01/31 03:10:55;;;;;;;13.40;8.35;;;0.50;99.90;;;;;;4159245;28;20025;-82
2021/01/31 03:13:09;;;;;;;12.23;7.47;;;0.50;99.90;;;;;;4152950;28;20040;-82
2021/01/31 03:15:23;;;;;;;12.65;7.82;;;0.40;99.90;;;;;;4161562;28;20124;-82
2021/01/31 03:17:37;;;;;;;12.65;7.60;;;0.40;99.90;;;;;;4151369;28;20033;-83
2021/01/31 03:19:54;;;;;;;11.38;7.35;;;0.40;99.90;;;;;;4158734;28;20030;-83
2021/01/31 03:21:57;;;;;;;12.10;7.72;;;0.40;99.90;;;;;;4153368;28;20069;-83
2021/01/31 03:24:10;;;;;;;10.25;7.35;;;0.40;99.90;;;;;;4151200;28;20047;-83
2021/01/31 03:26:20;;;;;;;15.18;8.43;;;0.50;99.90;;;;;;4155611;28;20022;-83
2021/01/31 03:28:21;;;;;;;13.38;8.25;;;0.50;99.90;;;;;;4167366;28;20032;-82
2021/01/31 03:30:22;;;;;;;12.60;7.53;;;0.40;99.90;;;;;;4165752;28;20025;-82
2021/01/31 03:32:37;;;;;;;14.40;8.40;;;0.50;99.90;;;;;;4146014;28;20046;-83
2021/01/31 03:34:56;;;;;;;14.07;8.55;;;0.40;99.90;;;;;;4161561;28;20064;-83
2021/01/31 03:37:02;;;;;;;14.77;8.25;;;0.40;99.90;;;;;;4145109;28;20038;-83
2021/01/31 03:39:04;;;;;;;15.35;8.30;;;0.40;99.90;;;;;;4150069;28;20293;-83
2021/01/31 03:41:09;;;;;;;13.52;7.32;;;0.40;99.90;;;;;;4161060;28;20032;-82
2021/01/31 03:43:10;;;;;;;13.85;8.63;;;0.40;99.90;;;;;;4159891;28;20036;-82
2021/01/31 03:45:13;;;;;;;15.45;8.68;;;0.40;99.90;;;;;;4177162;28;20099;-82
2021/01/31 03:47:26;;;;;;;15.18;8.32;;;0.30;99.90;;;;;;4142621;28;20533;-82
2021/01/31 03:49:31;;;;;;;14.25;7.57;;;0.30;99.90;;;;;;4175575;28;20044;-82
2021/01/31 03:51:34;;;;;;;12.13;7.22;;;0.30;99.90;;;;;;4160510;28;20121;-82
2021/01/31 03:53:35;;;;;;;12.82;7.50;;;0.30;99.90;;;;;;4161274;28;20108;-82
2021/01/31 03:55:35;;;;;;;12.65;7.78;;;0.40;99.90;;;;;;4150689;28;20034;-82
2021/01/31 03:57:59;;;;;;;13.80;7.28;;;0.40;99.90;;;;;;4160510;28;20034;-83
2021/01/31 04:00:07;;;;;;;12.93;8.00;;;0.40;99.90;;;;;;4143682;28;20263;-83
2021/01/31 04:02:12;;;;;;;13.10;7.57;;;0.40;99.90;;;;;;4162493;28;20509;-83
2021/01/31 04:04:21;;;;;;;12.35;7.72;;;0.40;99.90;;;;;;4151835;28;22321;-83
2021/01/31 04:06:24;;;;;;;13.35;8.18;;;0.40;99.90;;;;;;4161252;28;20032;-83
2021/01/31 04:08:27;;;;;;;14.90;8.80;;;0.40;99.90;;;;;;4144996;28;20026;-83
2021/01/31 04:10:27;;;;;;;15.73;8.88;;;0.40;99.90;;;;;;4154048;28;20022;-83
2021/01/31 04:12:34;;;;;;;14.05;8.15;;;0.40;99.90;;;;;;4145518;28;20463;-83
2021/01/31 04:14:46;;;;;;;16.15;8.45;;;0.30;99.90;;;;;;4161273;28;20083;-83
2021/01/31 04:16:49;;;;;;;14.00;8.27;;;0.20;99.90;;;;;;4143889;28;20423;-83
2021/01/31 04:18:49;;;;;;;12.60;7.90;;;0.20;99.90;;;;;;4160961;28;20120;-83
2021/01/31 04:20:51;;;;;;;13.48;7.88;;;0.20;99.90;;;;;;4143826;28;20030;-83
2021/01/31 04:22:52;;;;;;;15.27;8.63;;;0.20;99.90;;;;;;4162069;28;20083;-83
2021/01/31 04:24:53;;;;;;;14.75;8.45;;;0.10;99.90;;;;;;4144449;28;20494;-83
2021/01/31 04:26:53;;;;;;;12.90;7.97;;;0.20;99.90;;;;;;4161014;28;20037;-83
2021/01/31 04:28:55;;;;;;;16.87;8.90;;;0.10;99.90;;;;;;4144275;28;20022;-83
2021/01/31 04:30:57;;;;;;;15.95;8.23;;;0.10;99.90;;;;;;4160822;28;20083;-83
2021/01/31 04:32:57;;;;;;;16.80;9.25;;;0.10;99.90;;;;;;4148692;28;20038;-83
2021/01/31 04:34:58;;;;;;;12.32;7.90;;;0.20;99.90;;;;;;4145158;28;20081;-83
2021/01/31 04:36:59;;;;;;;14.90;8.13;;;0.20;99.90;;;;;;4160821;28;20029;-83
2021/01/31 04:39:00;;;;;;;13.55;7.88;;;0.30;99.90;;;;;;4160267;28;20072;-83
2021/01/31 04:41:01;;;;;;;12.90;7.72;;;0.30;99.90;;;;;;4141031;28;20037;-83
2021/01/31 04:43:05;;;;;;;13.27;7.88;;;0.40;99.90;;;;;;4161663;28;20025;-83
2021/01/31 04:45:10;;;;;;;12.40;7.57;;;0.40;99.90;;;;;;4151847;28;20037;-83
2021/01/31 04:47:20;;;;;;;16.58;8.63;;;0.40;99.90;;;;;;4142560;28;20098;-83
2021/01/31 04:49:33;;;;;;;16.98;8.68;;;0.50;99.90;;;;;;4143631;28;20158;-83
2021/01/31 04:51:33;;;;;;;;;;;0.50;99.90;;;;;;4143715;28;20205;-83
2021/01/31 04:53:49;;;;;;;14.10;8.27;;;0.50;99.90;;;;;;4167385;28;19964;-83
2021/01/31 04:56:07;;;;;;;15.05;8.10;;;0.60;99.90;;;;;;4160877;28;20093;-83
2021/01/31 04:58:13;;;;;;;14.50;7.85;;;0.60;99.90;;;;;;4158056;28;20030;-83
2021/01/31 05:00:23;;;;;;;15.43;9.07;;;0.60;99.90;;;;;;4159996;28;20419;-83
2021/01/31 05:02:31;;;;;;;16.75;9.43;;;0.60;99.90;;;;;;4158096;28;20033;-83
2021/01/31 05:04:37;;;;;;;15.02;7.97;;;0.60;99.90;;;;;;4162568;28;20029;-83
2021/01/31 05:06:47;;;;;;;15.35;8.15;;;0.60;99.90;;;;;;4160449;28;20046;-83
2021/01/31 05:08:48;;;;;;;15.20;8.15;;;0.60;99.90;;;;;;4141596;28;20030;-83
2021/01/31 05:11:00;;;;;;;16.37;9.60;;;0.60;99.90;;;;;;4143474;28;20034;-83
2021/01/31 05:13:16;;;;;;;17.73;9.13;;;0.60;99.90;;;;;;4174769;28;20272;-83
2021/01/31 05:15:27;;;;;;;14.15;8.45;;;0.50;99.90;;;;;;4177105;28;20029;-83
2021/01/31 05:17:29;;;;;;;13.13;8.65;;;0.50;99.90;;;;;;4160953;28;20034;-83
2021/01/31 05:19:33;;;;;;;14.98;8.77;;;0.50;99.90;;;;;;4152299;28;20052;-83
2021/01/31 05:21:35;;;;;;;14.82;8.52;;;0.50;99.90;;;;;;4161040;28;20160;-83
2021/01/31 05:23:42;;;;;;;14.40;8.67;;;0.40;99.90;;;;;;4144834;28;20089;-83
2021/01/31 05:25:43;;;;;;;18.58;9.48;;;0.40;99.90;;;;;;4141588;28;20131;-84
2021/01/31 05:27:45;;;;;;;15.80;9.02;;;0.40;99.90;;;;;;4160209;28;20496;-83
2021/01/31 05:29:45;;;;;;;16.10;9.43;;;0.40;99.90;;;;;;4160824;28;20033;-83
2021/01/31 05:31:57;;;;;;;17.17;9.55;;;0.40;99.90;;;;;;4175376;28;20159;-83
2021/01/31 05:33:59;;;;;;;14.48;8.55;;;0.40;99.90;;;;;;4143493;28;20033;-83
2021/01/31 05:36:06;;;;;;;;;;;0.30;99.90;;;;;;4154649;28;20082;-83
2021/01/31 05:38:07;;;;;;;19.63;9.70;;;0.20;99.90;;;;;;4174827;28;19915;-83
2021/01/31 05:40:12;;;;;;;22.05;10.40;;;0.20;99.90;;;;;;4162849;28;20034;-83
2021/01/31 05:42:17;;;;;;;23.92;10.38;;;0.10;99.90;;;;;;4158811;28;20672;-83
2021/01/31 05:44:27;;;;;;;23.38;11.35;;;0.10;99.90;;;;;;4145086;28;20426;-83
2021/01/31 05:46:54;;;;;;;21.48;11.35;;;0.10;99.90;;;;;;4159824;28;20034;-83
2021/01/31 05:48:55;;;;;;;19.33;10.45;;;0.10;99.90;;;;;;4154469;28;20029;-83
2021/01/31 05:50:56;;;;;;;19.33;10.32;;;0.00;99.90;;;;;;4161984;28;20040;-83
2021/01/31 05:52:57;;;;;;;17.83;9.75;;;-0.10;99.90;;;;;;4165878;28;20114;-83
2021/01/31 05:54:59;;;;;;;17.38;9.65;;;-0.10;99.90;;;;;;4162901;28;20163;-83
2021/01/31 05:57:01;;;;;;;;;;;-0.20;99.90;;;;;;4158191;28;20030;-83
2021/01/31 05:59:01;;;;;;;17.85;9.25;;;-0.20;99.90;;;;;;4146990;28;19992;-83
2021/01/31 06:01:10;;;;;;;17.42;9.32;;;-0.20;99.90;;;;;;4150875;28;20036;-83
2021/01/31 06:03:17;;;;;;;14.75;8.48;;;-0.10;99.90;;;;;;4139194;28;20105;-83
2021/01/31 06:05:20;;;;;;;15.63;9.82;;;-0.20;99.90;;;;;;4174286;28;20084;-83
2021/01/31 06:07:20;;;;;;;;;;;-0.30;99.90;;;;;;4146385;28;20486;-83
2021/01/31 06:09:31;;;;;;;17.63;9.63;;;-0.30;99.90;;;;;;4172700;28;19913;-83
2021/01/31 06:11:32;;;;;;;14.63;9.15;;;-0.30;99.90;;;;;;4143565;28;20034;-83
2021/01/31 06:13:35;;;;;;;14.77;9.30;;;-0.40;99.90;;;;;;4159664;28;20036;-83
2021/01/31 06:15:43;;;;;;;16.17;9.07;;;-0.40;99.90;;;;;;4140682;28;20030;-83
2021/01/31 06:17:55;;;;;;;17.60;9.50;;;-0.40;99.90;;;;;;4157201;28;20038;-83
2021/01/31 06:20:00;;;;;;;17.52;9.70;;;-0.40;99.90;;;;;;4151710;28;20033;-83
2021/01/31 06:22:02;;;;;;;16.70;10.13;;;-0.40;99.90;;;;;;4154782;28;20049;-83
2021/01/31 06:24:18;;;;;;;15.07;9.18;;;-0.30;99.90;;;;;;4156730;28;20026;-83
2021/01/31 06:26:39;;;;;;;17.10;9.15;;;-0.30;99.90;;;;;;4158080;28;20051;-83
2021/01/31 06:28:43;;;;;;;17.30;9.63;;;-0.30;99.90;;;;;;4164768;28;20111;-83
2021/01/31 06:30:52;;;;;;;16.55;9.30;;;-0.40;99.90;;;;;;4139601;28;20042;-83
2021/01/31 06:32:57;;;;;;;13.48;7.47;;;-0.30;99.90;;;;;;4148882;28;20510;-84
2021/01/31 06:35:02;;;;;;;13.93;8.75;;;-0.30;99.90;;;;;;4142308;28;20030;-83
2021/01/31 06:37:47;;;;;;;13.18;8.35;;;-0.30;99.90;;;;;;4126233;28;20038;-83
2021/01/31 06:40:13;;;;;;;15.85;9.10;;;-0.30;99.90;;;;;;4154284;28;20140;-83
2021/01/31 06:42:25;;;;;;;14.77;9.32;;;-0.30;99.90;;;;;;4142825;28;20030;-83
2021/01/31 06:44:38;;;;;;;17.20;9.30;;;-0.20;99.90;;;;;;4149929;28;20536;-83
2021/01/31 06:47:04;;;;;;;16.98;9.35;;;-0.30;99.90;;;;;;4136651;28;20048;-83
2021/01/31 06:49:43;;;;;;;15.77;8.90;;;-0.20;99.90;;;;;;4139598;28;20034;-83
2021/01/31 06:52:12;;;;;;;17.27;9.25;;;-0.20;99.90;;;;;;4141545;28;20034;-83
2021/01/31 06:54:34;;;;;;;14.05;8.57;;;-0.20;99.90;;;;;;4158088;28;20036;-83
2021/01/31 06:56:46;;;;;;;18.65;9.52;;;-0.20;99.90;;;;;;4142549;28;20097;-83
2021/01/31 06:59:13;;;;;;;17.40;9.57;;;-0.30;99.90;;;;;;4160797;28;20628;-83
2021/01/31 07:01:45;;;;;;;17.92;10.23;;;-0.30;99.90;;;;;;4152878;28;20244;-83
2021/01/31 07:03:54;;;;;;;17.07;9.87;;;-0.40;99.90;;;;;;4139485;28;20470;-83
2021/01/31 07:06:29;;;;;;;20.05;10.38;;;-0.30;99.90;;;;;;4172977;28;20736;-83
2021/01/31 07:08:51;;;;;;;16.60;9.40;;;-0.40;99.90;;;;;;4149374;28;21013;-84
2021/01/31 07:11:18;;;;;;;16.02;9.27;;;-0.40;99.90;;;;;;4151726;28;20060;-83
2021/01/31 07:13:45;;;;;;;15.75;8.85;;;-0.40;99.90;;;;;;4161511;28;20029;-83
2021/01/31 07:16:10;;;;;;;16.23;8.85;;;-0.30;99.90;;;;;;4147012;28;20038;-83
2021/01/31 07:18:14;;;;;;;17.85;8.95;;;-0.30;99.90;;;;;;4162013;28;20026;-83
2021/01/31 07:20:31;;;;;;;17.10;9.90;;;-0.30;99.90;;;;;;4148276;28;20048;-83
2021/01/31 07:22:57;;;;;;;15.40;8.85;;;-0.30;99.90;;;;;;4135104;28;20072;-83
2021/01/31 07:25:05;;;;;;;15.00;8.95;;;-0.30;99.90;;;;;;4140853;28;20034;-83
2021/01/31 07:27:32;;;;;;;17.40;9.75;;;-0.30;99.90;;;;;;4132863;28;20061;-83
2021/01/31 07:29:43;;;;;;;17.25;9.32;;;-0.40;99.90;;;;;;4134303;28;20037;-83
2021/01/31 07:31:53;;;;;;;16.88;10.25;;;-0.40;99.90;;;;;;4162747;28;20120;-83
2021/01/31 07:34:06;;;;;;;18.10;9.38;;;-0.40;99.90;;;;;;4161903;28;20037;-83
2021/01/31 07:36:12;;;;;;;16.25;8.98;;;-0.50;99.90;;;;;;4179378;28;20520;-83
2021/01/31 07:38:40;;;;;;;17.65;10.38;;;-0.50;99.90;;;;;;4180203;28;20187;-83
2021/01/31 07:40:44;;;;;;;15.70;9.45;;;-0.50;99.90;;;;;;4162998;28;20716;-83
2021/01/31 07:42:45;;;;;;;13.70;7.88;;;-0.50;99.90;;;;;;4166974;28;20041;-83
2021/01/31 07:44:47;;;;;;;16.52;8.27;;;-0.50;99.90;;;;;;4162377;28;20045;-84
2021/01/31 07:46:48;;;;;;;14.40;9.20;;;-0.40;99.90;;;;;;4169011;28;20048;-83
2021/01/31 07:48:51;;;;;;;14.57;9.02;;;-0.40;99.90;;;;;;4161832;28;20140;-83
2021/01/31 07:50:54;;;;;;;17.65;8.90;;;-0.30;99.90;;;;;;4160321;28;20101;-83
2021/01/31 07:52:57;;;;;;;15.57;9.25;;;-0.30;99.90;;;;;;4155831;28;20115;-84
2021/01/31 07:55:23;;;;;;;14.95;9.25;;;-0.30;99.90;;;;;;4166498;28;20393;-83
2021/01/31 07:57:25;;;;;;;16.35;9.00;;;-0.30;99.90;;;;;;4168235;28;20033;-83
2021/01/31 07:59:30;;;;;;;17.50;9.68;;;-0.30;99.90;;;;;;4178945;28;20063;-83
2021/01/31 08:01:40;;;;;;;18.35;10.15;;;-0.20;99.90;;;;;;4175614;28;20103;-83
2021/01/31 08:03:42;;;;;;;17.80;10.02;;;-0.20;99.90;;;;;;4137645;28;20514;-83
2021/01/31 08:06:14;;;;;;;16.13;9.68;;;-0.10;99.90;;;;;;4147657;28;20090;-83
2021/01/31 08:08:40;;;;;;;15.15;9.40;;;0.00;99.90;;;;;;4156292;28;20030;-83
2021/01/31 08:10:45;;;;;;;16.45;9.80;;;0.20;99.90;;;;;;4146523;28;20029;-84
2021/01/31 08:12:59;;;;;;;16.98;9.63;;;0.40;99.90;;;;;;4148978;28;20038;-83
2021/01/31 08:15:27;;;;;;;15.38;9.85;;;0.60;99.90;;;;;;4144446;28;20057;-84
2021/01/31 08:17:47;;;;;;;16.63;9.32;;;0.70;99.90;;;;;;4168172;28;20029;-84
2021/01/31 08:20:17;;;;;;;14.60;8.70;;;0.90;99.90;;;;;;4140942;28;20045;-84
2021/01/31 08:22:34;;;;;;;15.95;9.05;;;1.10;99.90;;;;;;4163430;28;20570;-83
2021/01/31 08:25:00;;;;;;;15.52;9.30;;;1.30;99.90;;;;;;4161385;28;20064;-83
2021/01/31 08:27:01;;;;;;;20.65;9.77;;;1.50;99.90;;;;;;4155355;28;20484;-83
2021/01/31 08:29:02;;;;;;;17.83;9.85;;;1.70;99.90;;;;;;4143962;28;20080;-83
2021/01/31 08:31:02;;;;;;;17.30;10.02;;;1.80;99.90;;;;;;4160018;28;20026;-83
2021/01/31 08:33:15;;;;;;;18.30;9.50;;;1.90;99.90;;;;;;4160350;28;20047;-83
2021/01/31 08:35:20;;;;;;;16.55;9.30;;;2.00;99.90;;;;;;4159990;28;20128;-83
2021/01/31 08:37:22;;;;;;;16.67;9.10;;;2.30;99.90;;;;;;4158868;28;20084;-83
2021/01/31 08:39:29;;;;;;;16.95;9.52;;;2.60;99.90;;;;;;4161643;28;20045;-85
2021/01/31 08:41:34;;;;;;;16.92;9.38;;;2.80;99.90;;;;;;4158150;28;20029;-85
2021/01/31 08:43:44;;;;;;;14.38;8.30;;;3.00;99.90;;;;;;4164341;28;20123;-83
2021/01/31 08:45:49;;;;;;;15.02;9.15;;;3.20;99.90;;;;;;4157940;28;20030;-83
2021/01/31 08:47:50;;;;;;;15.88;9.50;;;3.40;99.90;;;;;;4159027;28;20061;-84
2021/01/31 08:49:58;;;;;;;15.10;9.85;;;3.50;99.90;;;;;;4149532;28;20030;-83
2021/01/31 08:52:11;;;;;;;16.35;9.25;;;3.60;99.90;;;;;;4164104;28;20409;-83
2021/01/31 08:54:18;;;;;;;15.18;8.77;;;3.60;99.90;;;;;;4161298;28;20025;-83
2021/01/31 08:56:33;;;;;;;14.68;9.63;;;3.60;99.90;;;;;;4150822;28;20445;-83
2021/01/31 08:58:35;;;;;;;13.75;8.18;;;3.80;99.90;;;;;;4167521;28;20516;-83
2021/01/31 09:00:37;;;;;;;13.80;7.93;;;4.00;99.90;;;;;;4177677;28;20033;-83
2021/01/31 09:02:43;;;;;;;15.40;8.65;;;4.20;99.90;;;;;;4147967;28;20030;-83
2021/01/31 09:04:47;;;;;;;13.25;8.82;;;4.40;99.90;;;;;;4158110;28;20459;-84
2021/01/31 09:06:50;;;;;;;16.35;9.32;;;4.70;99.90;;;;;;4161367;28;20029;-84
2021/01/31 09:08:53;;;;;;;13.45;8.13;;;4.80;99.90;;;;;;4160624;28;20037;-84
2021/01/31 09:10:55;;;;;;;13.10;8.52;;;5.00;99.90;;;;;;4161765;28;20573;-85
2021/01/31 09:13:09;;;;;;;13.18;9.10;;;5.30;99.90;;;;;;4160225;28;20055;-84
2021/01/31 09:15:17;;;;;;;12.68;8.85;;;5.40;99.90;;;;;;4161050;28;20032;-86
2021/01/31 09:17:24;;;;;;;14.52;8.90;;;5.60;99.90;;;;;;4144505;28;20030;-84
2021/01/31 09:19:25;;;;;;;13.18;7.95;;;5.40;99.90;;;;;;4145149;28;20050;-84
2021/01/31 09:21:31;;;;;;;15.20;8.60;;;5.70;99.90;;;;;;4160490;28;20139;-84
2021/01/31 09:23:36;;;;;;;13.57;8.70;;;5.90;99.90;;;;;;4159720;28;20037;-84
2021/01/31 09:25:42;;;;;;;15.15;8.73;;;5.60;99.90;;;;;;4176495;28;20029;-84
2021/01/31 09:27:57;;;;;;;13.32;9.10;;;5.30;99.90;;;;;;4176569;28;20088;-83
2021/01/31 09:30:08;;;;;;;13.40;8.40;;;5.00;99.90;;;;;;4169839;28;20087;-83
2021/01/31 09:32:11;;;;;;;14.13;8.90;;;4.90;99.90;;;;;;4161594;28;20033;-83
2021/01/31 09:34:12;;;;;;;21.98;9.77;;;4.60;99.90;;;;;;4153511;28;20036;-84
2021/01/31 09:36:19;;;;;;;12.30;8.38;;;4.30;99.90;;;;;;4142380;28;20486;-83
2021/01/31 09:38:28;;;;;;;13.95;8.70;;;4.40;99.90;;;;;;4160407;28;20072;-83
2021/01/31 09:40:38;;;;;;;13.82;9.02;;;4.20;99.90;;;;;;4159482;28;20041;-83
2021/01/31 09:42:40;;;;;;;15.63;9.15;;;4.10;99.90;;;;;;4160784;28;20033;-83
2021/01/31 09:45:02;;;;;;;13.77;8.43;;;4.00;99.90;;;;;;4145255;28;20034;-83
2021/01/31 09:47:04;;;;;;;12.35;8.75;;;4.00;99.90;;;;;;4174740;28;20052;-83
2021/01/31 09:49:15;;;;;;;13.82;8.43;;;3.90;99.90;;;;;;4145181;28;20290;-83
2021/01/31 09:51:23;;;;;;;14.23;9.00;;;3.80;99.90;;;;;;4161308;28;20048;-83
2021/01/31 09:53:39;;;;;;;14.50;8.98;;;3.80;99.90;;;;;;4145068;28;20411;-83
2021/01/31 09:55:43;;;;;;;14.10;8.88;;;3.70;99.90;;;;;;4144269;28;20075;-83
2021/01/31 09:57:47;;;;;;;14.10;8.98;;;3.60;99.90;;;;;;4175282;28;20064;-83
2021/01/31 09:59:59;;;;;;;16.95;9.40;;;3.70;99.90;;;;;;4179781;28;20068;-84
2021/01/31 10:02:10;;;;;;;14.50;8.57;;;3.80;99.90;;;;;;4142997;28;20113;-83
2021/01/31 10:04:22;;;;;;;16.95;9.23;;;3.80;99.90;;;;;;4164100;28;20029;-84
2021/01/31 10:06:25;;;;;;;15.35;9.60;;;3.70;99.90;;;;;;4148049;28;20057;-84
2021/01/31 10:08:26;;;;;;;16.40;9.75;;;3.60;99.90;;;;;;4164544;28;20087;-83
2021/01/31 10:10:39;;;;;;;17.15;9.70;;;3.60;99.90;;;;;;4164121;28;20029;-83
2021/01/31 10:12:51;;;;;;;14.85;8.68;;;3.60;99.90;;;;;;4159856;28;20037;-83
2021/01/31 10:14:53;;;;;;;16.50;9.38;;;3.70;99.90;;;;;;4168186;28;20032;-83
2021/01/31 10:17:14;;;;;;;15.15;8.98;;;3.60;99.90;;;;;;4167878;28;20029;-83
2021/01/31 10:19:22;;;;;;;12.88;7.90;;;3.80;99.90;;;;;;4177544;28;20480;-83
2021/01/31 10:21:32;;;;;;;12.52;8.02;;;3.90;99.90;;;;;;4176546;28;20037;-83
2021/01/31 10:23:32;;;;;;;14.05;8.52;;;4.00;99.90;;;;;;4148884;28;20514;-84
2021/01/31 10:25:33;;;;;;;16.10;9.23;;;4.10;99.90;;;;;;4166164;28;20091;-84
2021/01/31 10:27:44;;;;;;;16.97;9.97;;;4.30;99.90;;;;;;4170641;28;20064;-84
2021/01/31 10:29:44;;;;;;;18.27;9.57;;;4.40;99.90;;;;;;4145121;28;20273;-84
2021/01/31 10:31:53;;;;;;;15.48;9.10;;;4.40;99.90;;;;;;4163940;28;20143;-83
2021/01/31 10:33:57;;;;;;;13.77;8.80;;;4.50;99.90;;;;;;4164313;28;20026;-84
2021/01/31 10:36:29;;;;;;;13.02;8.25;;;4.50;99.90;;;;;;4145731;28;20034;-84
2021/01/31 10:38:32;;;;;;;13.38;8.15;;;4.50;99.90;;;;;;4177867;28;20504;-83
2021/01/31 10:40:41;;;;;;;14.77;8.75;;;4.50;99.90;;;;;;4149090;28;20038;-84
2021/01/31 10:42:42;;;;;;;13.13;8.50;;;4.60;99.90;;;;;;4166656;28;20033;-83
2021/01/31 10:44:52;;;;;;;14.38;8.57;;;4.60;99.90;;;;;;4150016;28;20057;-83
2021/01/31 10:46:53;;;;;;;16.50;9.40;;;4.70;99.90;;;;;;4166808;28;20041;-83
2021/01/31 10:49:00;;;;;;;13.70;8.10;;;4.80;99.90;;;;;;4173809;28;20039;-83
2021/01/31 10:51:02;;;;;;;15.05;9.13;;;4.80;99.90;;;;;;4168101;28;20124;-84
2021/01/31 10:53:02;;;;;;;15.63;9.35;;;4.70;99.90;;;;;;4169610;28;20079;-83
2021/01/31 10:55:04;;;;;;;15.35;8.77;;;4.60;99.90;;;;;;4158213;28;20030;-83
2021/01/31 10:57:04;;;;;;;14.10;9.02;;;4.60;99.90;;;;;;4182990;28;20033;-84
2021/01/31 10:59:11;;;;;;;13.52;8.25;;;4.60;99.90;;;;;;4168547;28;20033;-84
2021/01/31 11:01:12;;;;;;;15.15;10.13;;;4.60;99.90;;;;;;4171763;28;20068;-83
2021/01/31 11:03:13;;;;;;;15.95;9.27;;;4.60;99.90;;;;;;4167505;28;20116;-84
2021/01/31 11:05:17;;;;;;;14.55;9.13;;;4.60;99.90;;;;;;4174430;28;20025;-84